createdAt,value
2023-05-05T00:00:03.146Z,93130.00
2023-05-05T00:01:02.597Z,93132.00
2023-05-05T00:02:02.634Z,93134.00
2023-05-05T00:03:02.655Z,93130.00
2023-05-05T00:04:02.626Z,93130.00
2023-05-05T00:05:02.605Z,93128.00
2023-05-05T00:06:02.630Z,93128.00
2023-05-05T00:07:02.611Z,93130.00
2023-05-05T00:08:02.611Z,93132.00
2023-05-05T00:09:02.606Z,93130.00
2023-05-05T00:10:02.623Z,93130.00
2023-05-05T00:11:02.626Z,93130.00
2023-05-05T00:12:02.615Z,93126.00
2023-05-05T00:13:02.657Z,93126.00
2023-05-05T00:14:02.618Z,93122.00
2023-05-05T00:15:02.597Z,93128.00
2023-05-05T00:16:02.601Z,93126.00
2023-05-05T00:17:02.610Z,93122.00
2023-05-05T00:18:02.649Z,93124.00
2023-05-05T00:19:02.636Z,93126.00
2023-05-05T00:20:02.590Z,93126.00
2023-05-05T00:21:02.595Z,93126.00
2023-05-05T00:22:02.583Z,93126.00
2023-05-05T00:23:02.588Z,93122.00
2023-05-05T00:24:02.589Z,93124.00
2023-05-05T00:25:02.585Z,93122.00
2023-05-05T00:26:02.625Z,93124.00
2023-05-05T00:27:02.633Z,93126.00
2023-05-05T00:28:02.664Z,93122.00
2023-05-05T00:29:02.708Z,93124.00
2023-05-05T00:30:02.732Z,93122.00
2023-05-05T00:31:02.768Z,93120.00
2023-05-05T00:32:02.787Z,93122.00
2023-05-05T00:33:02.977Z,93122.00
2023-05-05T00:34:02.793Z,93126.00
2023-05-05T00:35:02.780Z,93120.00
2023-05-05T00:36:02.778Z,93122.00
2023-05-05T00:37:02.762Z,93120.00
2023-05-05T00:38:02.806Z,93118.00
2023-05-05T00:39:02.772Z,93118.00
2023-05-05T00:40:02.778Z,93122.00
2023-05-05T00:41:02.793Z,93122.00
2023-05-05T00:42:02.821Z,93122.00
2023-05-05T00:43:02.932Z,93126.00
2023-05-05T00:44:02.985Z,93124.00
2023-05-05T00:45:02.939Z,93126.00
2023-05-05T00:46:03.047Z,93124.00
2023-05-05T00:47:03.004Z,93122.00
2023-05-05T00:48:03.074Z,93122.00
2023-05-05T00:49:03.122Z,93122.00
2023-05-05T00:50:03.109Z,93122.00
2023-05-05T00:51:03.138Z,93120.00
2023-05-05T00:52:03.153Z,93118.00
2023-05-05T00:53:03.193Z,93122.00
2023-05-05T00:54:03.215Z,93118.00
2023-05-05T00:55:03.274Z,93120.00
2023-05-05T00:56:03.300Z,93120.00
2023-05-05T00:57:03.329Z,93120.00
2023-05-05T00:58:03.364Z,93120.00
2023-05-05T00:59:03.402Z,93120.00
2023-05-05T01:00:03.450Z,93118.00
2023-05-05T01:01:03.494Z,93116.00
2023-05-05T01:02:03.574Z,93116.00
2023-05-05T01:03:03.739Z,93112.00
2023-05-05T01:04:03.778Z,93116.00
2023-05-05T01:05:03.727Z,93118.00
2023-05-05T01:06:03.788Z,93118.00
2023-05-05T01:07:03.884Z,93120.00
2023-05-05T01:08:03.903Z,93120.00
2023-05-05T01:09:03.955Z,93120.00
2023-05-05T01:10:18.216Z,93118.00
2023-05-05T01:11:04.969Z,93118.00
2023-05-05T01:12:03.943Z,93118.00
2023-05-05T01:13:04.030Z,93114.00
2023-05-05T01:14:03.925Z,93111.00
2023-05-05T01:15:03.919Z,93116.00
2023-05-05T01:16:03.927Z,93118.00
2023-05-05T01:17:03.893Z,93120.00
2023-05-05T01:18:03.944Z,93122.00
2023-05-05T01:19:03.882Z,93122.00
2023-05-05T01:20:03.871Z,93122.00
2023-05-05T01:21:03.833Z,93122.00
2023-05-05T01:22:03.833Z,93122.00
2023-05-05T01:23:03.825Z,93118.00
2023-05-05T01:24:03.812Z,93122.00
2023-05-05T01:25:03.816Z,93122.00
2023-05-05T01:26:03.858Z,93122.00
2023-05-05T01:27:03.891Z,93124.00
2023-05-05T01:28:03.944Z,93124.00
2023-05-05T01:29:04.017Z,93124.00
2023-05-05T01:30:04.056Z,93122.00
2023-05-05T01:31:04.075Z,93120.00
2023-05-05T01:32:04.178Z,93120.00
2023-05-05T01:33:04.147Z,93122.00
2023-05-05T01:34:04.180Z,93120.00
2023-05-05T01:35:04.224Z,93120.00
2023-05-05T01:36:04.214Z,93120.00
2023-05-05T01:37:04.224Z,93124.00
2023-05-05T01:38:04.249Z,93124.00
2023-05-05T01:39:04.270Z,93126.00
2023-05-05T01:40:04.359Z,93124.00
2023-05-05T01:41:04.310Z,93122.00
2023-05-05T01:42:04.339Z,93120.00
2023-05-05T01:43:04.382Z,93120.00
2023-05-05T01:44:04.405Z,93124.00
2023-05-05T01:45:04.436Z,93124.00
2023-05-05T01:46:04.516Z,93124.00
2023-05-05T01:47:04.515Z,93126.00
2023-05-05T01:48:04.593Z,93128.00
2023-05-05T01:49:04.599Z,93130.00
2023-05-05T01:50:04.645Z,93132.00
2023-05-05T01:51:04.664Z,93132.00
2023-05-05T01:52:04.691Z,93130.00
2023-05-05T01:53:04.730Z,93128.00
2023-05-05T01:54:04.765Z,93130.00
2023-05-05T01:55:04.809Z,93128.00
2023-05-05T01:56:04.872Z,93128.00
2023-05-05T01:57:04.935Z,93130.00
2023-05-05T01:58:05.022Z,93126.00
2023-05-05T01:59:05.052Z,93124.00
2023-05-05T02:00:05.148Z,93132.00
2023-05-05T02:01:05.166Z,93130.00
2023-05-05T02:02:05.254Z,93128.00
2023-05-05T02:03:05.305Z,93126.00
2023-05-05T02:04:05.322Z,93124.00
2023-05-05T02:05:05.374Z,93126.00
2023-05-05T02:06:05.433Z,93122.00
2023-05-05T02:07:05.476Z,93122.00
2023-05-05T02:08:05.526Z,93124.00
2023-05-05T02:09:05.558Z,93124.00
2023-05-05T02:10:05.686Z,93126.00
2023-05-05T02:11:05.620Z,93126.00
2023-05-05T02:12:05.665Z,93124.00
2023-05-05T02:13:05.790Z,93126.00
2023-05-05T02:14:05.710Z,93124.00
2023-05-05T02:15:05.751Z,93122.00
2023-05-05T02:16:05.822Z,93122.00
2023-05-05T02:17:05.768Z,93124.00
2023-05-05T02:18:05.868Z,93124.00
2023-05-05T02:19:05.822Z,93124.00
2023-05-05T02:20:05.933Z,93124.00
2023-05-05T02:21:05.882Z,93124.00
2023-05-05T02:22:05.907Z,93124.00
2023-05-05T02:23:05.983Z,93124.00
2023-05-05T02:24:06.020Z,93122.00
2023-05-05T02:25:05.992Z,93124.00
2023-05-05T02:26:06.046Z,93124.00
2023-05-05T02:27:06.067Z,93124.00
2023-05-05T02:28:06.084Z,93126.00
2023-05-05T02:29:06.126Z,93122.00
2023-05-05T02:30:06.418Z,93122.00
2023-05-05T02:31:06.237Z,93126.00
2023-05-05T02:32:06.246Z,93130.00
2023-05-05T02:33:06.369Z,93128.00
2023-05-05T02:34:06.319Z,93130.00
2023-05-05T02:35:06.367Z,93128.00
2023-05-05T02:36:06.398Z,93130.00
2023-05-05T02:37:06.448Z,93126.00
2023-05-05T02:38:06.464Z,93126.00
2023-05-05T02:39:06.517Z,93124.00
2023-05-05T02:40:06.799Z,93124.00
2023-05-05T02:41:06.552Z,93126.00
2023-05-05T02:42:06.620Z,93126.00
2023-05-05T02:43:06.780Z,93124.00
2023-05-05T02:44:06.724Z,93124.00
2023-05-05T02:45:06.871Z,93124.00
2023-05-05T02:46:06.839Z,93132.00
2023-05-05T02:47:07.697Z,93128.00
2023-05-05T02:48:06.941Z,93130.00
2023-05-05T02:49:06.931Z,93130.00
2023-05-05T02:50:07.178Z,93130.00
2023-05-05T02:51:06.994Z,93130.00
2023-05-05T02:52:07.015Z,93128.00
2023-05-05T02:53:07.046Z,93132.00
2023-05-05T02:54:07.049Z,93134.00
2023-05-05T02:55:07.085Z,93136.00
2023-05-05T02:56:07.101Z,93134.00
2023-05-05T02:57:07.131Z,93134.00
2023-05-05T02:58:07.165Z,93134.00
2023-05-05T02:59:07.184Z,93134.00
2023-05-05T03:00:07.329Z,93130.00
2023-05-05T03:01:07.323Z,93132.00
2023-05-05T03:02:07.288Z,93132.00
2023-05-05T03:03:07.393Z,93130.00
2023-05-05T03:04:07.397Z,93130.00
2023-05-05T03:05:07.450Z,93126.00
2023-05-05T03:06:07.494Z,93128.00
2023-05-05T03:07:07.525Z,93128.00
2023-05-05T03:08:07.566Z,93128.00
2023-05-05T03:09:07.585Z,93130.00
2023-05-05T03:10:08.024Z,93126.00
2023-05-05T03:11:07.698Z,93128.00
2023-05-05T03:12:07.733Z,93130.00
2023-05-05T03:13:07.910Z,93134.00
2023-05-05T03:14:07.823Z,93134.00
2023-05-05T03:15:07.879Z,93132.00
2023-05-05T03:16:07.924Z,93134.00
2023-05-05T03:17:07.964Z,93134.00
2023-05-05T03:18:08.023Z,93132.00
2023-05-05T03:19:08.079Z,93134.00
2023-05-05T03:20:08.329Z,93134.00
2023-05-05T03:21:08.238Z,93138.00
2023-05-05T03:22:08.302Z,93136.00
2023-05-05T03:23:08.379Z,93134.00
2023-05-05T03:24:08.448Z,93136.00
2023-05-05T03:25:08.531Z,93138.00
2023-05-05T03:26:08.587Z,93136.00
2023-05-05T03:27:08.657Z,93134.00
2023-05-05T03:28:08.696Z,93136.00
2023-05-05T03:29:08.756Z,93138.00
2023-05-05T03:30:08.990Z,93138.00
2023-05-05T03:31:08.890Z,93138.00
2023-05-05T03:32:08.998Z,93136.00
2023-05-05T03:33:09.188Z,93138.00
2023-05-05T03:34:09.106Z,93136.00
2023-05-05T03:35:09.162Z,93136.00
2023-05-05T03:36:09.231Z,93134.00
2023-05-05T03:37:09.309Z,93130.00
2023-05-05T03:38:09.355Z,93130.00
2023-05-05T03:39:09.491Z,93128.00
2023-05-05T03:40:09.631Z,93124.00
2023-05-05T03:41:09.547Z,93124.00
2023-05-05T03:42:09.608Z,93126.00
2023-05-05T03:43:09.676Z,93126.00
2023-05-05T03:44:09.724Z,93128.00
2023-05-05T03:45:09.788Z,93128.00
2023-05-05T03:46:09.946Z,93132.00
2023-05-05T03:47:09.912Z,93128.00
2023-05-05T03:48:10.031Z,93128.00
2023-05-05T03:49:10.042Z,93128.00
2023-05-05T03:50:10.200Z,93126.00
2023-05-05T03:51:10.097Z,93126.00
2023-05-05T03:52:10.137Z,93128.00
2023-05-05T03:53:10.188Z,93128.00
2023-05-05T03:54:10.258Z,93134.00
2023-05-05T03:55:10.326Z,93134.00
2023-05-05T03:56:10.393Z,93134.00
2023-05-05T03:57:10.452Z,93136.00
2023-05-05T03:58:10.508Z,93136.00
2023-05-05T03:59:10.617Z,93132.00
2023-05-05T04:00:10.616Z,93134.00
2023-05-05T04:01:10.666Z,93134.00
2023-05-05T04:02:10.752Z,93134.00
2023-05-05T04:03:11.053Z,93136.00
2023-05-05T04:04:10.913Z,93134.00
2023-05-05T04:05:10.907Z,93136.00
2023-05-05T04:06:10.986Z,93132.00
2023-05-05T04:07:11.035Z,93138.00
2023-05-05T04:08:11.113Z,93132.00
2023-05-05T04:09:11.174Z,93134.00
2023-05-05T04:10:11.231Z,93134.00
2023-05-05T04:11:11.303Z,93134.00
2023-05-05T04:12:11.347Z,93136.00
2023-05-05T04:13:11.473Z,93134.00
2023-05-05T04:14:11.453Z,93132.00
2023-05-05T04:15:11.524Z,93130.00
2023-05-05T04:16:11.589Z,93130.00
2023-05-05T04:17:11.632Z,93130.00
2023-05-05T04:18:11.703Z,93128.00
2023-05-05T04:19:11.762Z,93130.00
2023-05-05T04:20:11.855Z,93130.00
2023-05-05T04:21:11.908Z,93128.00
2023-05-05T04:22:11.967Z,93130.00
2023-05-05T04:23:12.048Z,93130.00
2023-05-05T04:24:12.112Z,93130.00
2023-05-05T04:25:12.182Z,93130.00
2023-05-05T04:26:12.261Z,93134.00
2023-05-05T04:27:12.336Z,93138.00
2023-05-05T04:28:12.431Z,93136.00
2023-05-05T04:29:12.479Z,93138.00
2023-05-05T04:30:12.544Z,93136.00
2023-05-05T04:31:12.645Z,93134.00
2023-05-05T04:32:12.680Z,93142.00
2023-05-05T04:33:12.738Z,93134.00
2023-05-05T04:34:12.780Z,93138.00
2023-05-05T04:35:12.875Z,93140.00
2023-05-05T04:36:12.919Z,93142.00
2023-05-05T04:37:12.988Z,93144.00
2023-05-05T04:38:13.062Z,93142.00
2023-05-05T04:39:13.100Z,93142.00
2023-05-05T04:40:13.111Z,93138.00
2023-05-05T04:41:13.132Z,93142.00
2023-05-05T04:42:13.152Z,93142.00
2023-05-05T04:43:13.175Z,93144.00
2023-05-05T04:44:13.245Z,93146.00
2023-05-05T04:45:13.317Z,93144.00
2023-05-05T04:46:13.371Z,93144.00
2023-05-05T04:47:14.763Z,93144.00
2023-05-05T04:48:13.504Z,93146.00
2023-05-05T04:49:13.560Z,93142.00
2023-05-05T04:50:13.631Z,93140.00
2023-05-05T04:51:13.686Z,93140.00
2023-05-05T04:52:13.740Z,93142.00
2023-05-05T04:53:13.807Z,93144.00
2023-05-05T04:54:13.853Z,93138.00
2023-05-05T04:55:14.724Z,93140.00
2023-05-05T04:56:13.978Z,93144.00
2023-05-05T04:57:14.045Z,93144.00
2023-05-05T04:58:14.110Z,93134.00
2023-05-05T04:59:14.170Z,93146.00
2023-05-05T05:00:14.218Z,93146.00
2023-05-05T05:01:14.261Z,93142.00
2023-05-05T05:02:14.386Z,93142.00
2023-05-05T05:03:14.454Z,93146.00
2023-05-05T05:04:14.417Z,93150.00
2023-05-05T05:05:14.490Z,93152.00
2023-05-05T05:06:14.557Z,93152.00
2023-05-05T05:07:14.599Z,93156.00
2023-05-05T05:08:14.662Z,93156.00
2023-05-05T05:09:14.739Z,93156.00
2023-05-05T05:10:14.816Z,93158.00
2023-05-05T05:11:14.904Z,93154.00
2023-05-05T05:12:14.983Z,93158.00
2023-05-05T05:13:15.120Z,93158.00
2023-05-05T05:14:15.176Z,93162.00
2023-05-05T05:15:15.229Z,93164.00
2023-05-05T05:16:15.373Z,93160.00
2023-05-05T05:17:15.363Z,93166.00
2023-05-05T05:18:15.420Z,93166.00
2023-05-05T05:19:15.521Z,93166.00
2023-05-05T05:20:15.582Z,93160.00
2023-05-05T05:21:15.673Z,93162.00
2023-05-05T05:22:15.712Z,93162.00
2023-05-05T05:23:15.752Z,93160.00
2023-05-05T05:24:15.782Z,93162.00
2023-05-05T05:25:15.833Z,93160.00
2023-05-05T05:26:15.837Z,93162.00
2023-05-05T05:27:15.863Z,93158.00
2023-05-05T05:28:15.879Z,93162.00
2023-05-05T05:29:15.928Z,93160.00
2023-05-05T05:30:15.999Z,93162.00
2023-05-05T05:31:16.048Z,93162.00
2023-05-05T05:32:16.162Z,93162.00
2023-05-05T05:33:16.149Z,93162.00
2023-05-05T05:34:16.212Z,93162.00
2023-05-05T05:35:17.160Z,93166.00
2023-05-05T05:36:16.802Z,93160.00
2023-05-05T05:37:16.430Z,93160.00
2023-05-05T05:38:16.530Z,93158.00
2023-05-05T05:39:16.498Z,93162.00
2023-05-05T05:40:16.540Z,93160.00
2023-05-05T05:41:16.568Z,93166.00
2023-05-05T05:42:16.653Z,93160.00
2023-05-05T05:43:16.701Z,93166.00
2023-05-05T05:44:16.767Z,93164.00
2023-05-05T05:45:16.820Z,93164.00
2023-05-05T05:46:16.883Z,93167.00
2023-05-05T05:47:16.957Z,93162.00
2023-05-05T05:48:16.979Z,93166.00
2023-05-05T05:49:17.035Z,93162.00
2023-05-05T05:50:17.094Z,93164.00
2023-05-05T05:51:17.164Z,93166.00
2023-05-05T05:52:17.221Z,93166.00
2023-05-05T05:53:17.291Z,93166.00
2023-05-05T05:54:17.327Z,93167.00
2023-05-05T05:55:17.392Z,93164.00
2023-05-05T05:56:17.442Z,93164.00
2023-05-05T05:57:17.514Z,93164.00
2023-05-05T05:58:17.567Z,93162.00
2023-05-05T05:59:17.611Z,93164.00
2023-05-05T06:00:17.642Z,93164.00
2023-05-05T06:01:17.671Z,93162.00
2023-05-05T06:02:17.720Z,93164.00
2023-05-05T06:03:17.851Z,93162.00
2023-05-05T06:04:17.726Z,93166.00
2023-05-05T06:05:17.743Z,93164.00
2023-05-05T06:06:17.794Z,93162.00
2023-05-05T06:07:17.829Z,93162.00
2023-05-05T06:08:17.889Z,93156.00
2023-05-05T06:09:17.903Z,93158.00
2023-05-05T06:10:27.257Z,93154.00
2023-05-05T06:11:18.949Z,93156.00
2023-05-05T06:12:18.765Z,93154.00
2023-05-05T06:13:18.776Z,93156.00
2023-05-05T06:14:18.251Z,93154.00
2023-05-05T06:15:17.903Z,93152.00
2023-05-05T06:16:17.917Z,93152.00
2023-05-05T06:17:17.886Z,93154.00
2023-05-05T06:18:18.018Z,93154.00
2023-05-05T06:19:17.903Z,93156.00
2023-05-05T06:20:17.893Z,93154.00
2023-05-05T06:21:17.859Z,93154.00
2023-05-05T06:22:17.863Z,93152.00
2023-05-05T06:23:17.935Z,93154.00
2023-05-05T06:24:18.009Z,93148.00
2023-05-05T06:25:18.045Z,93146.00
2023-05-05T06:26:18.112Z,93140.00
2023-05-05T06:27:18.173Z,93140.00
2023-05-05T06:28:18.200Z,93138.00
2023-05-05T06:29:18.242Z,93142.00
2023-05-05T06:30:18.309Z,93136.00
2023-05-05T06:31:18.390Z,93138.00
2023-05-05T06:32:18.385Z,93136.00
2023-05-05T06:33:18.410Z,93132.00
2023-05-05T06:34:18.483Z,93132.00
2023-05-05T06:35:18.542Z,93132.00
2023-05-05T06:36:18.647Z,93134.00
2023-05-05T06:37:18.679Z,93130.00
2023-05-05T06:38:18.733Z,93130.00
2023-05-05T06:39:19.761Z,93124.00
2023-05-05T06:40:18.809Z,93124.00
2023-05-05T06:41:18.809Z,93126.00
2023-05-05T06:42:18.859Z,93124.00
2023-05-05T06:43:18.909Z,93128.00
2023-05-05T06:44:18.970Z,93122.00
2023-05-05T06:45:19.032Z,93122.00
2023-05-05T06:46:19.167Z,93124.00
2023-05-05T06:47:19.180Z,93124.00
2023-05-05T06:48:19.207Z,93124.00
2023-05-05T06:49:19.244Z,93126.00
2023-05-05T06:50:19.305Z,93128.00
2023-05-05T06:51:19.268Z,93122.00
2023-05-05T06:52:19.293Z,93124.00
2023-05-05T06:53:19.319Z,93122.00
2023-05-05T06:54:19.352Z,93118.00
2023-05-05T06:55:19.456Z,93116.00
2023-05-05T06:56:19.443Z,93112.00
2023-05-05T06:57:19.549Z,93112.00
2023-05-05T06:58:19.560Z,93112.00
2023-05-05T06:59:19.572Z,93111.00
2023-05-05T07:00:19.597Z,93112.00
2023-05-05T07:01:19.699Z,93111.00
2023-05-05T07:02:19.653Z,93109.00
2023-05-05T07:03:19.760Z,93109.00
2023-05-05T07:04:19.684Z,93107.00
2023-05-05T07:05:19.655Z,93107.00
2023-05-05T07:06:19.633Z,93105.00
2023-05-05T07:07:19.629Z,93107.00
2023-05-05T07:08:19.625Z,93107.00
2023-05-05T07:09:19.603Z,93101.00
2023-05-05T07:10:19.617Z,93103.00
2023-05-05T07:11:19.873Z,93097.00
2023-05-05T07:12:19.644Z,93099.00
2023-05-05T07:13:19.734Z,93097.00
2023-05-05T07:14:20.960Z,93089.00
2023-05-05T07:15:28.509Z,93097.00
2023-05-05T07:16:20.603Z,93089.00
2023-05-05T07:17:19.532Z,93087.00
2023-05-05T07:18:19.551Z,93087.00
2023-05-05T07:19:19.473Z,93085.00
2023-05-05T07:20:19.437Z,93097.00
2023-05-05T07:21:19.401Z,93089.00
2023-05-05T07:22:19.372Z,93087.00
2023-05-05T07:23:19.324Z,93083.00
2023-05-05T07:24:20.310Z,93083.00
2023-05-05T07:25:19.273Z,93079.00
2023-05-05T07:26:19.257Z,93077.00
2023-05-05T07:27:19.328Z,93081.00
2023-05-05T07:28:19.300Z,93077.00
2023-05-05T07:29:19.327Z,93081.00
2023-05-05T07:30:19.869Z,93081.00
2023-05-05T07:31:19.340Z,93077.00
2023-05-05T07:32:19.442Z,93075.00
2023-05-05T07:33:19.261Z,93077.00
2023-05-05T07:34:19.240Z,93075.00
2023-05-05T07:35:19.197Z,93070.00
2023-05-05T07:36:19.150Z,93072.00
2023-05-05T07:37:19.110Z,93072.00
2023-05-05T07:38:19.077Z,93072.00
2023-05-05T07:39:19.017Z,93070.00
2023-05-05T07:40:18.970Z,93070.00
2023-05-05T07:41:18.981Z,93066.00
2023-05-05T07:42:18.945Z,93066.00
2023-05-05T07:43:19.070Z,93064.00
2023-05-05T07:44:18.907Z,93060.00
2023-05-05T07:45:18.899Z,93060.00
2023-05-05T07:46:18.923Z,93056.00
2023-05-05T07:47:18.920Z,93058.00
2023-05-05T07:48:18.887Z,93052.00
2023-05-05T07:49:18.866Z,93054.00
2023-05-05T07:50:18.836Z,93050.00
2023-05-05T07:51:18.816Z,93052.00
2023-05-05T07:52:19.469Z,93046.00
2023-05-05T07:53:18.716Z,93044.00
2023-05-05T07:54:18.633Z,93044.00
2023-05-05T07:55:18.546Z,93040.00
2023-05-05T07:56:19.336Z,93040.00
2023-05-05T07:57:18.615Z,93040.00
2023-05-05T07:58:18.566Z,93042.00
2023-05-05T07:59:18.665Z,93040.00
2023-05-05T08:00:18.457Z,93038.00
2023-05-05T08:01:18.542Z,93032.00
2023-05-05T08:02:18.685Z,93036.00
2023-05-05T08:03:18.812Z,93030.00
2023-05-05T08:04:18.851Z,93028.00
2023-05-05T08:05:18.920Z,93027.00
2023-05-05T08:06:19.027Z,93030.00
2023-05-05T08:07:19.149Z,93028.00
2023-05-05T08:08:19.241Z,93025.00
2023-05-05T08:09:19.366Z,93025.00
2023-05-05T08:10:19.414Z,93023.00
2023-05-05T08:11:19.512Z,93023.00
2023-05-05T08:12:19.603Z,93019.00
2023-05-05T08:13:19.781Z,93017.00
2023-05-05T08:14:19.836Z,93015.00
2023-05-05T08:15:20.039Z,93013.00
2023-05-05T08:16:20.883Z,93015.00
2023-05-05T08:17:20.038Z,93009.00
2023-05-05T08:18:20.008Z,93007.00
2023-05-05T08:19:28.906Z,93005.00
2023-05-05T08:20:20.843Z,93005.00
2023-05-05T08:21:19.737Z,93005.00
2023-05-05T08:22:19.628Z,93003.00
2023-05-05T08:23:19.552Z,93001.00
2023-05-05T08:24:19.436Z,93003.00
2023-05-05T08:25:19.334Z,93003.00
2023-05-05T08:26:19.221Z,93001.00
2023-05-05T08:27:19.136Z,92997.00
2023-05-05T08:28:19.158Z,92993.00
2023-05-05T08:29:19.272Z,92997.00
2023-05-05T08:30:19.374Z,92991.00
2023-05-05T08:31:19.570Z,92991.00
2023-05-05T08:32:19.547Z,92991.00
2023-05-05T08:33:19.668Z,92991.00
2023-05-05T08:34:19.735Z,92989.00
2023-05-05T08:35:19.837Z,92991.00
2023-05-05T08:36:20.022Z,92989.00
2023-05-05T08:37:20.030Z,92989.00
2023-05-05T08:38:20.314Z,92987.00
2023-05-05T08:39:20.221Z,92987.00
2023-05-05T08:40:20.315Z,92985.00
2023-05-05T08:41:20.258Z,92983.00
2023-05-05T08:42:35.577Z,92983.00
2023-05-05T08:43:21.084Z,92981.00
2023-05-05T08:44:19.973Z,92979.00
2023-05-05T08:45:19.884Z,92979.00
2023-05-05T08:46:19.790Z,92979.00
2023-05-05T08:47:20.346Z,92975.00
2023-05-05T08:48:19.585Z,92977.00
2023-05-05T08:49:19.483Z,92973.00
2023-05-05T08:50:19.375Z,92972.00
2023-05-05T08:51:19.422Z,92970.00
2023-05-05T08:52:19.515Z,92968.00
2023-05-05T08:53:19.602Z,92966.00
2023-05-05T08:54:19.690Z,92970.00
2023-05-05T08:55:19.783Z,92968.00
2023-05-05T08:56:19.883Z,92966.00
2023-05-05T08:57:19.987Z,92964.00
2023-05-05T08:58:20.094Z,92968.00
2023-05-05T08:59:20.205Z,92960.00
2023-05-05T09:00:20.324Z,92964.00
2023-05-05T09:01:20.436Z,92960.00
2023-05-05T09:02:20.533Z,92964.00
2023-05-05T09:03:20.782Z,92960.00
2023-05-05T09:04:20.761Z,92958.00
2023-05-05T09:05:20.865Z,92956.00
2023-05-05T09:06:20.989Z,92956.00
2023-05-05T09:07:21.067Z,92954.00
2023-05-05T09:08:21.177Z,92950.00
2023-05-05T09:09:21.298Z,92956.00
2023-05-05T09:10:21.553Z,92948.00
2023-05-05T09:11:21.558Z,92946.00
2023-05-05T09:12:21.676Z,92946.00
2023-05-05T09:13:21.809Z,92946.00
2023-05-05T09:14:21.900Z,92946.00
2023-05-05T09:15:22.026Z,92944.00
2023-05-05T09:16:22.162Z,92942.00
2023-05-05T09:17:22.263Z,92940.00
2023-05-05T09:18:22.354Z,92938.00
2023-05-05T09:19:22.543Z,92936.00
2023-05-05T09:20:22.550Z,92934.00
2023-05-05T09:21:22.673Z,92930.00
2023-05-05T09:22:22.725Z,92930.00
2023-05-05T09:23:22.828Z,92930.00
2023-05-05T09:24:22.893Z,92928.00
2023-05-05T09:25:22.982Z,92926.00
2023-05-05T09:26:23.175Z,92926.00
2023-05-05T09:27:23.737Z,92925.00
2023-05-05T09:28:23.129Z,92925.00
2023-05-05T09:29:23.001Z,92923.00
2023-05-05T09:30:22.844Z,92923.00
2023-05-05T09:31:22.857Z,92917.00
2023-05-05T09:32:22.726Z,92919.00
2023-05-05T09:33:22.507Z,92915.00
2023-05-05T09:34:22.418Z,92913.00
2023-05-05T09:35:22.333Z,92907.00
2023-05-05T09:36:22.256Z,92907.00
2023-05-05T09:37:22.153Z,92905.00
2023-05-05T09:38:22.056Z,92903.00
2023-05-05T09:39:21.952Z,92903.00
2023-05-05T09:40:21.980Z,92901.00
2023-05-05T09:41:21.711Z,92901.00
2023-05-05T09:42:21.579Z,92901.00
2023-05-05T09:43:21.485Z,92899.00
2023-05-05T09:44:21.372Z,92897.00
2023-05-05T09:45:21.269Z,92897.00
2023-05-05T09:46:22.863Z,92897.00
2023-05-05T09:47:29.627Z,92897.00
2023-05-05T09:48:22.049Z,92895.00
2023-05-05T09:49:20.737Z,92895.00
2023-05-05T09:50:20.730Z,92891.00
2023-05-05T09:51:20.531Z,92891.00
2023-05-05T09:52:21.245Z,92893.00
2023-05-05T09:53:20.195Z,92891.00
2023-05-05T09:54:20.037Z,92891.00
2023-05-05T09:55:19.893Z,92891.00
2023-05-05T09:56:19.771Z,92889.00
2023-05-05T09:57:19.618Z,92887.00
2023-05-05T09:58:20.055Z,92885.00
2023-05-05T09:59:19.414Z,92887.00
2023-05-05T10:00:20.293Z,92887.00
2023-05-05T10:01:19.389Z,92883.00
2023-05-05T10:02:19.182Z,92887.00
2023-05-05T10:03:19.099Z,92883.00
2023-05-05T10:04:19.020Z,92883.00
2023-05-05T10:05:19.914Z,92883.00
2023-05-05T10:06:18.828Z,92879.00
2023-05-05T10:07:18.795Z,92881.00
2023-05-05T10:08:18.649Z,92875.00
2023-05-05T10:09:18.528Z,92872.00
2023-05-05T10:10:18.530Z,92872.00
2023-05-05T10:11:18.316Z,92872.00
2023-05-05T10:12:18.203Z,92868.00
2023-05-05T10:13:18.773Z,92866.00
2023-05-05T10:14:17.971Z,92866.00
2023-05-05T10:15:17.842Z,92866.00
2023-05-05T10:16:17.798Z,92864.00
2023-05-05T10:17:17.617Z,92864.00
2023-05-05T10:18:17.517Z,92862.00
2023-05-05T10:19:17.385Z,92858.00
2023-05-05T10:20:17.315Z,92858.00
2023-05-05T10:21:17.209Z,92856.00
2023-05-05T10:22:17.118Z,92852.00
2023-05-05T10:23:17.067Z,92852.00
2023-05-05T10:24:16.878Z,92850.00
2023-05-05T10:25:16.765Z,92846.00
2023-05-05T10:26:16.638Z,92844.00
2023-05-05T10:27:16.567Z,92844.00
2023-05-05T10:28:16.730Z,92840.00
2023-05-05T10:29:16.829Z,92833.00
2023-05-05T10:30:16.950Z,92833.00
2023-05-05T10:31:25.714Z,92831.00
2023-05-05T10:32:47.290Z,92827.00
2023-05-05T10:33:30.373Z,92823.00
2023-05-05T10:34:17.832Z,92823.00
2023-05-05T10:35:16.513Z,92823.00
2023-05-05T10:36:16.329Z,92821.00
2023-05-05T10:37:16.177Z,92821.00
2023-05-05T10:38:16.021Z,92823.00
2023-05-05T10:39:15.904Z,92821.00
2023-05-05T10:40:15.716Z,92815.00
2023-05-05T10:41:15.522Z,92813.00
2023-05-05T10:42:15.368Z,92811.00
2023-05-05T10:43:15.213Z,92807.00
2023-05-05T10:44:15.040Z,92807.00
2023-05-05T10:45:14.910Z,92807.00
2023-05-05T10:46:14.783Z,92801.00
2023-05-05T10:47:14.643Z,92801.00
2023-05-05T10:48:14.842Z,92799.00
2023-05-05T10:49:14.843Z,92797.00
2023-05-05T10:50:14.883Z,92797.00
2023-05-05T10:51:23.938Z,92793.00
2023-05-05T10:52:15.850Z,92793.00
2023-05-05T10:53:14.676Z,92791.00
2023-05-05T10:54:14.536Z,92791.00
2023-05-05T10:55:14.481Z,92791.00
2023-05-05T10:56:14.228Z,92787.00
2023-05-05T10:57:14.064Z,92787.00
2023-05-05T10:58:13.901Z,92786.00
2023-05-05T10:59:14.308Z,92784.00
2023-05-05T11:00:15.057Z,92782.00
2023-05-05T11:01:13.410Z,92782.00
2023-05-05T11:02:13.332Z,92778.00
2023-05-05T11:03:13.113Z,92780.00
2023-05-05T11:04:12.875Z,92778.00
2023-05-05T11:05:12.680Z,92776.00
2023-05-05T11:06:12.511Z,92774.00
2023-05-05T11:07:14.971Z,92774.00
2023-05-05T11:08:12.160Z,92772.00
2023-05-05T11:09:11.997Z,92770.00
2023-05-05T11:10:11.946Z,92766.00
2023-05-05T11:11:11.704Z,92764.00
2023-05-05T11:12:11.462Z,92762.00
2023-05-05T11:13:11.291Z,92760.00
2023-05-05T11:14:11.106Z,92758.00
2023-05-05T11:15:10.942Z,92754.00
2023-05-05T11:16:11.003Z,92756.00
2023-05-05T11:17:11.037Z,92750.00
2023-05-05T11:18:11.222Z,92748.00
2023-05-05T11:19:11.287Z,92744.00
2023-05-05T11:20:11.334Z,92742.00
2023-05-05T11:21:11.489Z,92739.00
2023-05-05T11:22:11.600Z,92740.00
2023-05-05T11:23:12.597Z,92740.00
2023-05-05T11:24:11.600Z,92737.00
2023-05-05T11:25:11.431Z,92737.00
2023-05-05T11:26:11.281Z,92739.00
2023-05-05T11:27:11.357Z,92735.00
2023-05-05T11:28:11.071Z,92737.00
2023-05-05T11:29:10.900Z,92735.00
2023-05-05T11:30:10.987Z,92731.00
2023-05-05T11:31:10.567Z,92729.00
2023-05-05T11:32:10.378Z,92731.00
2023-05-05T11:33:10.214Z,92731.00
2023-05-05T11:34:10.025Z,92725.00
2023-05-05T11:35:09.846Z,92727.00
2023-05-05T11:36:09.673Z,92723.00
2023-05-05T11:37:09.585Z,92717.00
2023-05-05T11:38:09.364Z,92719.00
2023-05-05T11:39:09.201Z,92719.00
2023-05-05T11:40:09.178Z,92717.00
2023-05-05T11:41:09.139Z,92715.00
2023-05-05T11:42:10.687Z,92713.00
2023-05-05T11:43:08.789Z,92713.00
2023-05-05T11:44:08.504Z,92711.00